Time;durP1;ratioP1;P1;durP2;ratioP2;P2;SDS_P1;SDS_P2;PMS_P1;PMS_P2;Temp;Humidity;BMP_temperature;BMP_pressure;BME280_temperature;BME280_humidity;BME280_pressure;Samples;Min_cycle;Max_cycle;Signal;HPM_P1;HPM_P2
2021/08/25 00:01:40;;;;;;;5.07;2.13;;;;;;;21.58;54.61;102567.63;5033000;28;20091;-63
2021/08/25 00:04:06;;;;;;;4.93;2.70;;;;;;;21.58;54.51;102570.28;5032355;28;20057;-63
2021/08/25 00:06:31;;;;;;;8.25;2.33;;;;;;;21.57;54.51;102571.28;5031622;28;20036;-63
2021/08/25 00:08:57;;;;;;;5.03;2.20;;;;;;;21.52;54.59;102560.97;5032257;28;20021;-63
2021/08/25 00:11:23;;;;;;;4.53;2.10;;;;;;;21.58;54.32;102565.00;5032402;28;20512;-62
2021/08/25 00:13:48;;;;;;;4.40;2.00;;;;;;;21.57;54.53;102563.31;5031261;28;20022;-62
2021/08/25 00:16:14;;;;;;;4.60;1.90;;;;;;;21.56;54.71;102564.25;5032589;28;20117;-62
2021/08/25 00:18:39;;;;;;;4.70;2.08;;;;;;;21.55;54.56;102558.09;5032487;28;20116;-62
2021/08/25 00:21:07;;;;;;;4.32;2.00;;;;;;;21.55;54.54;102560.75;5031449;28;20041;-62
2021/08/25 00:23:32;;;;;;;5.00;2.08;;;;;;;21.53;54.38;102554.69;5032410;28;20065;-62
2021/08/25 00:25:58;;;;;;;5.05;2.17;;;;;;;21.55;54.47;102554.59;5031836;28;20049;-62
2021/08/25 00:28:24;;;;;;;4.50;2.00;;;;;;;21.54;54.27;102544.94;5031336;28;20025;-63
2021/08/25 00:30:50;;;;;;;5.47;2.40;;;;;;;21.55;54.27;102539.53;5032100;28;20075;-62
2021/08/25 00:33:18;;;;;;;4.97;2.13;;;;;;;21.51;54.27;102543.34;5032216;28;20029;-62
2021/08/25 00:35:44;;;;;;;4.85;2.10;;;;;;;21.53;54.50;102535.28;5031157;28;20049;-63
2021/08/25 00:38:09;;;;;;;4.45;2.10;;;;;;;21.52;54.32;102536.22;5032175;28;20140;-63
2021/08/25 00:40:38;;;;;;;4.80;2.13;;;;;;;21.52;54.35;102538.88;5031691;28;20037;-62
2021/08/25 00:43:10;;;;;;;4.82;2.10;;;;;;;21.52;54.45;102544.19;5032037;28;20654;-63
2021/08/25 00:45:43;;;;;;;4.00;1.88;;;;;;;21.51;54.36;102540.69;5032044;28;20017;-62
2021/08/25 00:48:12;;;;;;;3.90;1.85;;;;;;;21.49;54.20;102533.78;5031240;28;20448;-62
2021/08/25 00:50:37;;;;;;;4.03;1.92;;;;;;;21.49;54.33;102539.09;5031918;28;20448;-62
2021/08/25 00:53:06;;;;;;;5.18;2.00;;;;;;;21.50;54.36;102541.63;5031562;28;20354;-62
2021/08/25 00:55:32;;;;;;;4.25;1.88;;;;;;;21.48;54.32;102529.44;5031039;28;20038;-62
2021/08/25 00:58:00;;;;;;;4.05;1.80;;;;;;;21.48;54.30;102526.78;5031581;28;20458;-62
2021/08/25 01:00:28;;;;;;;5.97;2.38;;;;;;;21.48;54.10;102534.72;5031942;28;20029;-62
2021/08/25 01:03:09;;;;;;;5.03;1.98;;;;;;;21.47;54.25;102535.69;5030858;28;20378;-62
2021/08/25 01:05:40;;;;;;;4.32;2.00;;;;;;;21.46;54.05;102539.28;5031748;28;20021;-62
2021/08/25 01:08:07;;;;;;;3.97;1.85;;;;;;;21.45;54.33;102534.94;5031776;28;20053;-62
2021/08/25 01:10:33;;;;;;;4.82;2.22;;;;;;;21.45;53.95;102532.28;5031090;28;20026;-62
2021/08/25 01:13:06;;;;;;;4.55;1.80;;;;;;;21.44;54.15;102523.47;5031173;28;20500;-62
2021/08/25 01:15:33;;;;;;;3.83;1.77;;;;;;;21.42;54.12;102520.06;5031201;28;20115;-62
2021/08/25 01:18:00;;;;;;;4.35;2.00;;;;;;;21.44;54.00;102517.31;5030295;28;20026;-62
2021/08/25 01:20:28;;;;;;;3.60;1.88;;;;;;;21.43;54.19;102516.47;5031505;28;20025;-63
2021/08/25 01:22:53;;;;;;;5.15;2.08;;;;;;;21.43;54.00;102515.59;5030578;28;20057;-62
2021/08/25 01:25:21;;;;;;;4.90;2.08;;;;;;;21.36;54.05;102507.22;5031774;28;20021;-61
2021/08/25 01:28:02;;;;;;;3.90;2.05;;;;;;;21.43;53.82;102515.59;5031690;28;20418;-62
2021/08/25 01:30:32;;;;;;;4.47;1.90;;;;;;;21.42;53.99;102519.22;5031329;28;20029;-62
2021/08/25 01:33:01;;;;;;;4.72;1.92;;;;;;;21.37;53.97;102509.78;5031628;28;20021;-62
2021/08/25 01:35:40;;;;;;;4.10;2.08;;;;;;;21.38;54.03;102511.50;5032158;28;20018;-62
2021/08/25 01:38:06;;;;;;;4.53;1.77;;;;;;;21.38;53.80;102511.50;5031358;28;20026;-63
2021/08/25 01:40:33;;;;;;;4.10;1.90;;;;;;;21.39;54.00;102507.03;5031781;28;20163;-61
2021/08/25 01:42:59;;;;;;;4.40;1.88;;;;;;;21.38;53.81;102506.19;5031394;28;20105;-62
2021/08/25 01:45:24;;;;;;;3.70;1.95;;;;;;;21.36;54.04;102492.19;5031045;28;20465;-62
2021/08/25 01:47:49;;;;;;;4.25;1.88;;;;;;;21.38;53.94;102500.03;5031505;28;20029;-63
2021/08/25 01:50:15;;;;;;;4.75;2.15;;;;;;;21.36;53.59;102497.50;5031269;28;20418;-63
2021/08/25 01:52:40;;;;;;;4.18;1.75;;;;;;;21.37;53.84;102495.69;5034233;28;20030;-63
2021/08/25 01:55:06;;;;;;;4.40;1.90;;;;;;;21.36;53.89;102496.63;5034698;28;20124;-62
2021/08/25 01:57:32;;;;;;;3.88;1.88;;;;;;;21.35;53.77;102484.34;5035054;28;20022;-62
2021/08/25 01:59:57;;;;;;;4.35;2.10;;;;;;;21.35;53.92;102487.84;5033696;28;20022;-62
2021/08/25 02:02:22;;;;;;;4.30;1.85;;;;;;;21.35;53.51;102490.47;5034938;28;20047;-63
2021/08/25 02:04:48;;;;;;;4.97;2.20;;;;;;;21.34;54.09;102487.94;5034552;28;20029;-63
2021/08/25 02:07:13;;;;;;;4.67;1.93;;;;;;;21.33;53.96;102492.41;5034077;28;20279;-62
2021/08/25 02:09:38;;;;;;;4.50;1.75;;;;;;;21.33;53.87;102491.53;5034629;28;20277;-62
2021/08/25 02:12:04;;;;;;;4.47;1.90;;;;;;;21.33;53.58;102488.88;5033708;28;20105;-62
2021/08/25 02:14:30;;;;;;;5.20;2.20;;;;;;;21.33;53.74;102486.22;5034554;28;20777;-62
2021/08/25 02:16:55;;;;;;;4.38;1.90;;;;;;;21.28;53.83;102475.94;5034485;28;20033;-62
2021/08/25 02:19:20;;;;;;;4.00;1.95;;;;;;;21.33;53.71;102494.19;5034017;28;20109;-62
2021/08/25 02:21:46;;;;;;;4.20;1.90;;;;;;;21.33;53.91;102486.22;5034323;28;20112;-63
2021/08/25 02:24:11;;;;;;;4.68;2.10;;;;;;;21.30;53.72;102482.00;5034390;28;20072;-62
2021/08/25 02:26:36;;;;;;;4.30;2.03;;;;;;;21.32;53.76;102487.22;5033825;28;20052;-62
2021/08/25 02:29:01;;;;;;;4.60;2.30;;;;;;;21.29;53.80;102479.47;5034139;28;20677;-62
2021/08/25 02:31:27;;;;;;;3.85;2.00;;;;;;;21.28;53.52;102470.63;5034246;28;20278;-62
2021/08/25 02:33:52;;;;;;;4.93;2.13;;;;;;;21.26;53.89;102464.59;5033288;28;20351;-62
2021/08/25 02:36:20;;;;;;;4.47;1.85;;;;;;;21.27;53.46;102468.97;5034158;28;20099;-62
2021/08/25 02:38:45;;;;;;;4.55;2.05;;;;;;;21.28;53.58;102475.09;5033914;28;20028;-62
2021/08/25 02:41:13;;;;;;;4.75;2.15;;;;;;;21.27;53.72;102478.69;5033378;28;20033;-62
2021/08/25 02:43:39;;;;;;;4.47;2.08;;;;;;;21.25;53.59;102467.34;5034080;28;20105;-61
2021/08/25 02:46:05;;;;;;;4.18;1.77;;;;;;;21.19;53.64;102453.56;5033664;28;20557;-63
2021/08/25 02:48:34;;;;;;;4.78;2.10;;;;;;;21.23;53.55;102461.31;5033756;28;20026;-62
2021/08/25 02:50:59;;;;;;;4.30;2.13;;;;;;;21.25;53.43;102462.06;5033555;28;20405;-62
2021/08/25 02:53:25;;;;;;;4.30;1.83;;;;;;;21.25;53.57;102460.25;5033869;28;20021;-62
2021/08/25 02:55:50;;;;;;;4.03;1.92;;;;;;;21.26;53.56;102461.09;5032943;28;20048;-62
2021/08/25 02:58:16;;;;;;;4.43;1.80;;;;;;;21.24;53.51;102452.38;5033830;28;20055;-62
2021/08/25 03:00:41;;;;;;;4.97;1.95;;;;;;;21.23;53.51;102448.91;5033914;28;20033;-62
2021/08/25 03:03:07;;;;;;;4.45;1.90;;;;;;;21.23;53.53;102440.94;5031747;28;20017;-62
2021/08/25 03:05:32;;;;;;;4.25;1.90;;;;;;;21.24;53.39;102447.97;5033803;28;20026;-62
2021/08/25 03:07:57;;;;;;;5.07;1.85;;;;;;;21.23;53.48;102443.59;5033410;28;20136;-62
2021/08/25 03:10:23;;;;;;;4.22;1.95;;;;;;;21.18;53.22;102430.66;5032947;28;20029;-62
2021/08/25 03:12:48;;;;;;;4.43;1.88;;;;;;;21.22;53.41;102430.44;5033288;28;20078;-62
2021/08/25 03:15:14;;;;;;;4.10;1.95;;;;;;;21.22;53.41;102436.63;5033496;28;20244;-62
2021/08/25 03:17:39;;;;;;;6.15;2.20;;;;;;;21.18;53.33;102430.66;5032824;28;20033;-63
2021/08/25 03:20:12;;;;;;;3.90;1.98;;;;;;;21.18;53.33;102430.66;5033134;28;20017;-63
2021/08/25 03:22:38;;;;;;;4.10;1.88;;;;;;;21.18;53.34;102427.16;5032797;28;20034;-62
2021/08/25 03:25:06;;;;;;;4.70;2.10;;;;;;;21.20;53.39;102434.06;5032808;28;20025;-62
2021/08/25 03:27:31;;;;;;;5.78;2.08;;;;;;;21.18;53.28;102430.66;5033048;28;20029;-61
2021/08/25 03:29:57;;;;;;;3.83;1.85;;;;;;;21.20;53.32;102433.22;5032143;28;20080;-62
2021/08/25 03:32:22;;;;;;;4.30;1.98;;;;;;;21.19;53.28;102439.47;5033252;28;20024;-63
2021/08/25 03:34:50;;;;;;;4.55;2.10;;;;;;;21.16;53.37;102429.09;5032828;28;20027;-63
2021/08/25 03:37:16;;;;;;;4.28;2.15;;;;;;;21.19;53.20;102434.19;5032313;28;20029;-62
2021/08/25 03:39:44;;;;;;;4.30;1.90;;;;;;;21.14;53.24;102426.53;5033068;28;20022;-62
2021/08/25 03:42:13;;;;;;;4.25;2.03;;;;;;;21.18;53.25;102424.53;5032820;28;20025;-62
2021/08/25 03:44:39;;;;;;;4.50;1.90;;;;;;;21.17;53.25;102420.16;5032481;28;20109;-62
2021/08/25 03:47:06;;;;;;;4.57;2.17;;;;;;;21.16;53.22;102421.97;5032536;28;20440;-62
2021/08/25 03:49:32;;;;;;;5.75;2.20;;;;;;;21.16;53.13;102421.13;5032963;28;20030;-62
2021/08/25 03:51:58;;;;;;;5.13;2.10;;;;;;;21.14;53.18;102407.13;5031449;28;20057;-63
2021/08/25 03:54:23;;;;;;;6.53;2.25;;;;;;;21.16;53.08;102411.38;5032688;28;20041;-62
2021/08/25 03:56:48;;;;;;;3.95;1.95;;;;;;;21.14;53.13;102409.78;5032508;28;20132;-62
2021/08/25 03:59:14;;;;;;;3.95;1.80;;;;;;;21.13;53.05;102403.63;5032072;28;20020;-63
2021/08/25 04:01:41;;;;;;;4.20;2.17;;;;;;;21.12;53.09;102404.56;5032562;28;20120;-63
2021/08/25 04:04:09;;;;;;;4.82;2.33;;;;;;;21.13;53.06;102408.94;5032482;28;20051;-61
2021/08/25 04:06:37;;;;;;;4.50;2.15;;;;;;;21.13;53.05;102408.09;5031987;28;20067;-62
2021/08/25 04:09:04;;;;;;;4.70;2.13;;;;;;;21.13;53.05;102403.63;5032366;28;20021;-62
2021/08/25 04:11:31;;;;;;;3.78;2.00;;;;;;;21.14;53.10;102407.13;5032696;28;20045;-62
2021/08/25 04:13:56;;;;;;;4.70;2.30;;;;;;;21.12;53.12;102407.22;5031349;28;20025;-62
2021/08/25 04:16:22;;;;;;;4.20;2.10;;;;;;;21.12;53.06;102412.53;5032741;28;20504;-62
2021/08/25 04:18:47;;;;;;;4.72;2.30;;;;;;;21.10;53.08;102408.31;5031584;28;20519;-62
2021/08/25 04:21:12;;;;;;;4.15;2.00;;;;;;;21.12;53.00;102409.03;5032496;28;20060;-63
2021/08/25 04:23:38;;;;;;;6.75;2.03;;;;;;;21.11;52.92;102408.19;5032479;28;20033;-63
2021/08/25 04:26:03;;;;;;;4.70;2.30;;;;;;;21.08;52.87;102410.19;5031687;28;20029;-62
2021/08/25 04:28:28;;;;;;;4.78;2.10;;;;;;;21.10;52.77;102405.66;5032506;28;20290;-62
2021/08/25 04:30:54;;;;;;;4.20;2.00;;;;;;;21.10;52.88;102408.31;5032304;28;20030;-62
2021/08/25 04:33:20;;;;;;;4.38;1.95;;;;;;;21.09;52.89;102409.25;5031760;28;20465;-63
2021/08/25 04:35:45;;;;;;;4.00;2.00;;;;;;;21.08;52.63;102405.75;5032201;28;20477;-63
2021/08/25 04:38:13;;;;;;;4.20;2.05;;;;;;;21.08;52.64;102403.09;5032249;28;20485;-63
2021/08/25 04:40:38;;;;;;;4.53;2.20;;;;;;;21.06;52.88;102406.81;5031745;28;20057;-63
2021/08/25 04:43:03;;;;;;;4.47;2.15;;;;;;;21.08;52.78;102407.53;5032155;28;20481;-63
2021/08/25 04:45:29;;;;;;;4.67;2.23;;;;;;;21.07;52.79;102405.88;5032826;28;20041;-62
2021/08/25 04:47:54;;;;;;;4.85;2.05;;;;;;;21.06;52.72;102402.38;5031356;28;20267;-62
2021/08/25 04:50:22;;;;;;;4.65;2.10;;;;;;;21.06;52.84;102405.03;5031987;28;20477;-62
2021/08/25 04:52:50;;;;;;;4.60;2.00;;;;;;;21.07;52.72;102405.88;5031776;28;20021;-62
2021/08/25 04:55:16;;;;;;;5.05;2.20;;;;;;;21.05;52.80;102397.19;5031663;28;20025;-63
2021/08/25 04:57:44;;;;;;;4.20;2.08;;;;;;;21.05;52.83;102403.31;5032337;28;20049;-63
2021/08/25 05:00:09;;;;;;;5.07;2.15;;;;;;;21.05;52.43;102399.84;5032171;28;20029;-63
2021/08/25 05:02:38;;;;;;;4.35;2.22;;;;;;;21.05;52.84;102397.19;5031328;28;20033;-64
2021/08/25 05:05:03;;;;;;;4.55;2.20;;;;;;;21.04;52.67;102398.13;5031765;28;20025;-62
2021/08/25 05:07:29;;;;;;;5.78;2.10;;;;;;;21.05;52.70;102398.00;5031828;28;20523;-63
2021/08/25 05:09:54;;;;;;;4.88;2.00;;;;;;;21.00;52.69;102389.53;5031254;28;20017;-62
2021/08/25 05:12:22;;;;;;;3.90;1.95;;;;;;;21.00;52.68;102395.69;5032113;28;20516;-62
2021/08/25 05:14:47;;;;;;;4.85;2.40;;;;;;;20.98;52.60;102384.34;5031924;28;20023;-63
2021/08/25 05:17:13;;;;;;;4.67;2.00;;;;;;;21.03;52.52;102399.94;5031426;28;20084;-63
2021/08/25 05:19:41;;;;;;;4.85;2.28;;;;;;;21.01;52.60;102384.13;5032112;28;20266;-63
2021/08/25 05:22:07;;;;;;;4.68;2.17;;;;;;;20.99;52.52;102382.53;5030963;28;20061;-63
2021/08/25 05:24:33;;;;;;;4.13;1.92;;;;;;;21.02;52.59;102393.78;5032277;28;20072;-62
2021/08/25 05:26:59;;;;;;;4.28;2.10;;;;;;;21.03;52.58;102399.94;5034050;28;20477;-63
2021/08/25 05:29:24;;;;;;;4.95;1.70;;;;;;;21.00;52.52;102392.19;5034728;28;20057;-63
2021/08/25 05:31:50;;;;;;;5.60;2.03;;;;;;;21.01;52.53;102386.78;5035259;28;20049;-62
2021/08/25 05:34:24;;;;;;;4.30;2.30;;;;;;;21.01;52.52;102389.44;5035375;28;20040;-62
2021/08/25 05:36:49;;;;;;;4.75;2.22;;;;;;;21.02;52.63;102391.13;5034280;28;20294;-61
2021/08/25 05:39:14;;;;;;;5.70;2.30;;;;;;;21.01;52.43;102385.91;5035490;28;20056;-62
2021/08/25 05:41:40;;;;;;;4.43;2.22;;;;;;;21.03;52.73;102391.97;5035359;28;20125;-62
2021/08/25 05:44:05;;;;;;;4.00;2.03;;;;;;;21.01;52.52;102392.09;5034384;28;20022;-62
2021/08/25 05:46:40;;;;;;;4.38;2.22;;;;;;;21.00;52.48;102392.19;5035350;28;20422;-62
2021/08/25 05:49:05;;;;;;;4.32;2.05;;;;;;;21.01;52.68;102393.88;5035071;28;20021;-62
2021/08/25 05:51:30;;;;;;;5.03;2.60;;;;;;;21.02;52.45;102396.41;5034235;28;20042;-62
2021/08/25 05:53:55;;;;;;;5.05;2.17;;;;;;;21.02;52.46;102385.81;5034860;28;20314;-63
2021/08/25 05:56:21;;;;;;;4.75;2.10;;;;;;;21.02;52.39;102392.94;5034899;28;20057;-62
2021/08/25 05:58:49;;;;;;;4.97;2.13;;;;;;;20.93;52.34;102381.16;5033928;28;20398;-62
2021/08/25 06:01:15;;;;;;;5.35;2.15;;;;;;;21.00;52.47;102390.38;5034879;28;20247;-63
2021/08/25 06:03:41;;;;;;;3.95;2.10;;;;;;;21.02;52.30;102391.13;5034695;28;20109;-60
2021/08/25 06:06:08;;;;;;;5.13;2.20;;;;;;;21.00;52.27;102394.84;5034047;28;20049;-63
2021/08/25 06:08:33;;;;;;;5.50;2.42;;;;;;;21.01;52.32;102396.53;5034927;28;20017;-63
2021/08/25 06:10:58;;;;;;;4.60;2.00;;;;;;;21.02;52.24;102399.06;5034302;28;20029;-62
2021/08/25 06:13:24;;;;;;;5.72;2.50;;;;;;;21.02;52.67;102401.72;5033859;28;20112;-62
2021/08/25 06:15:49;;;;;;;4.78;2.33;;;;;;;21.03;52.86;102394.63;5034338;28;20060;-61
2021/08/25 06:18:15;;;;;;;4.43;2.35;;;;;;;21.06;53.14;102394.44;5033627;28;20049;-63
2021/08/25 06:20:43;;;;;;;6.05;2.30;;;;;;;21.07;53.37;102393.44;5034629;28;20041;-62
2021/08/25 06:23:08;;;;;;;5.68;2.50;;;;;;;21.09;53.79;102396.00;5034177;28;20060;-60
2021/08/25 06:25:33;;;;;;;4.50;1.90;;;;;;;21.12;53.92;102395.78;5033501;28;20065;-60
2021/08/25 06:27:59;;;;;;;4.85;2.20;;;;;;;21.12;53.85;102390.47;5033969;28;20129;-62
2021/08/25 06:30:25;;;;;;;4.50;2.10;;;;;;;21.14;53.79;102394.72;5034254;28;20406;-60
2021/08/25 06:32:50;;;;;;;4.50;2.08;;;;;;;21.16;53.81;102394.63;5033468;28;20026;-62
2021/08/25 06:35:16;;;;;;;4.57;2.20;;;;;;;21.19;54.04;102400.56;5034154;28;20025;-62
2021/08/25 06:37:42;;;;;;;5.25;1.77;;;;;;;21.19;54.00;102403.22;5034108;28;20029;-63
2021/08/25 06:40:08;;;;;;;5.43;2.20;;;;;;;21.23;54.13;102408.28;5033148;28;20026;-62
2021/08/25 06:42:33;;;;;;;4.13;2.10;;;;;;;21.23;53.79;102405.66;5033991;28;20116;-63
2021/08/25 06:44:58;;;;;;;4.40;2.33;;;;;;;21.27;54.02;102409.75;5033934;28;20493;-60
2021/08/25 06:47:29;;;;;;;5.07;1.90;;;;;;;21.30;54.02;102406.88;5033307;28;20036;-64
2021/08/25 06:49:55;;;;;;;5.63;2.10;;;;;;;21.29;53.82;102399.91;5033808;28;20029;-62
2021/08/25 06:52:20;;;;;;;5.00;2.20;;;;;;;21.29;53.92;102399.91;5034282;28;20532;-65
2021/08/25 06:54:45;;;;;;;7.63;2.53;;;;;;;21.36;53.96;102402.03;5033240;28;20509;-64
2021/08/25 06:57:11;;;;;;;4.30;2.15;;;;;;;21.40;54.27;102412.41;5034060;28;20477;-64
2021/08/25 06:59:36;;;;;;;5.10;2.08;;;;;;;21.37;53.90;102406.34;5034373;28;20026;-63
2021/08/25 07:02:01;;;;;;;4.97;2.17;;;;;;;21.43;54.15;102410.38;5032809;28;20033;-63
2021/08/25 07:04:27;;;;;;;4.30;2.00;;;;;;;21.42;53.98;102411.34;5034009;28;20055;-63
2021/08/25 07:07:01;;;;;;;4.20;1.90;;;;;;;21.44;54.07;102405.94;5032412;28;20079;-60
2021/08/25 07:09:27;;;;;;;5.32;2.10;;;;;;;21.47;53.97;102419.81;5032799;28;20025;-61
2021/08/25 07:11:52;;;;;;;5.68;2.45;;;;;;;21.47;53.78;102408.38;5033545;28;20022;-60
2021/08/25 07:14:17;;;;;;;4.22;2.00;;;;;;;21.49;53.60;102414.44;5033524;28;20025;-60
2021/08/25 07:16:43;;;;;;;6.30;2.47;;;;;;;21.24;53.67;102372.84;5032580;28;20029;-60
2021/08/25 07:19:09;;;;;;;4.47;2.20;;;;;;;21.48;53.48;102413.59;5031810;28;20161;-60
2021/08/25 07:21:34;;;;;;;5.13;2.20;;;;;;;21.48;53.53;102413.59;5032245;28;20388;-59
2021/08/25 07:24:00;;;;;;;5.20;2.28;;;;;;;21.51;53.46;102415.19;5033335;28;20029;-64
2021/08/25 07:26:26;;;;;;;5.47;2.20;;;;;;;21.52;53.46;102414.22;5033447;28;20521;-62
2021/08/25 07:28:51;;;;;;;4.97;2.47;;;;;;;21.50;53.66;102413.47;5032121;28;20361;-62
2021/08/25 07:31:17;;;;;;;5.15;2.00;;;;;;;21.51;53.49;102413.38;5033022;28;20500;-63
2021/08/25 07:33:42;;;;;;;4.40;1.92;;;;;;;21.49;53.56;102401.16;5032747;28;20021;-63
2021/08/25 07:36:08;;;;;;;6.30;2.60;;;;;;;21.52;53.46;102399.16;5031870;28;20021;-63
2021/08/25 07:38:34;;;;;;;5.13;2.10;;;;;;;21.55;53.49;102401.59;5032464;28;20013;-62
2021/08/25 07:40:59;;;;;;;5.65;2.13;;;;;;;21.54;53.68;102404.38;5032424;28;20036;-63
2021/08/25 07:43:26;;;;;;;4.75;2.20;;;;;;;21.56;53.52;102407.75;5032019;28;20024;-64
2021/08/25 07:45:51;;;;;;;5.22;2.38;;;;;;;21.56;53.62;102399.78;5032269;28;20470;-64
2021/08/25 07:48:17;;;;;;;5.40;2.38;;;;;;;21.54;53.48;102399.06;5032005;28;20029;-64
2021/08/25 07:50:42;;;;;;;5.43;2.70;;;;;;;21.52;53.46;102395.63;5031267;28;20042;-62
2021/08/25 07:53:07;;;;;;;5.50;2.33;;;;;;;21.54;53.44;102399.91;5032430;28;20021;-63
2021/08/25 07:55:33;;;;;;;4.78;2.50;;;;;;;21.52;53.46;102390.34;5032540;28;20504;-62
2021/08/25 07:57:58;;;;;;;7.22;2.95;;;;;;;21.53;53.38;102392.88;5031548;28;20026;-63
2021/08/25 08:00:23;;;;;;;5.60;2.35;;;;;;;21.54;53.48;102388.44;5032377;28;20021;-63
2021/08/25 08:02:49;;;;;;;4.85;2.22;;;;;;;21.54;53.50;102385.78;5032345;28;20191;-64
2021/08/25 08:05:14;;;;;;;5.03;2.25;;;;;;;21.51;53.57;102389.50;5031719;28;20428;-63
2021/08/25 08:07:39;;;;;;;5.50;2.40;;;;;;;21.53;53.64;102384.09;5032047;28;20028;-63
2021/08/25 08:10:08;;;;;;;4.78;2.10;;;;;;;21.51;53.61;102384.19;5031931;28;20029;-63
2021/08/25 08:12:34;;;;;;;6.68;2.20;;;;;;;21.52;53.58;102380.59;5031675;28;20030;-63
2021/08/25 08:15:00;;;;;;;5.70;2.25;;;;;;;21.52;53.64;102379.72;5031911;28;20037;-63
2021/08/25 08:17:25;;;;;;;5.65;2.50;;;;;;;21.49;53.30;102380.81;5032164;28;20404;-62
2021/08/25 08:19:56;;;;;;;5.97;2.55;;;;;;;21.51;53.35;102380.72;5031447;28;20034;-63
2021/08/25 08:22:21;;;;;;;5.53;2.40;;;;;;;21.51;53.52;102375.41;5032076;28;20028;-63
2021/08/25 08:24:46;;;;;;;5.50;2.13;;;;;;;21.51;53.71;102373.59;5031907;28;20033;-63
2021/08/25 08:27:12;;;;;;;5.82;2.20;;;;;;;21.51;53.65;102373.59;5031671;28;20033;-63
2021/08/25 08:29:37;;;;;;;5.30;2.22;;;;;;;21.50;53.62;102373.69;5031849;28;20096;-62
2021/08/25 08:32:02;;;;;;;4.78;2.33;;;;;;;21.51;53.72;102370.94;5031097;28;20029;-64
2021/08/25 08:34:28;;;;;;;3.67;1.95;;;;;;;21.50;53.72;102369.22;5032343;28;20021;-63
2021/08/25 08:36:53;;;;;;;5.32;2.40;;;;;;;21.50;53.66;102366.56;5031457;28;20029;-63
2021/08/25 08:39:19;;;;;;;4.18;2.15;;;;;;;21.49;53.63;102362.25;5031560;28;20366;-63
2021/08/25 08:41:44;;;;;;;5.05;2.40;;;;;;;21.50;53.80;102369.22;5031794;28;20029;-63
2021/08/25 08:44:12;;;;;;;4.47;2.10;;;;;;;21.51;53.68;102375.41;5031975;28;20163;-63
2021/08/25 08:46:40;;;;;;;4.47;2.20;;;;;;;21.50;53.53;102371.03;5031166;28;20466;-62
2021/08/25 08:49:07;;;;;;;5.45;2.53;;;;;;;21.51;53.53;102375.41;5031675;28;20028;-63
2021/08/25 08:51:38;;;;;;;6.93;2.30;;;;;;;21.51;53.60;102378.06;5031481;28;20524;-64
2021/08/25 08:54:04;;;;;;;4.78;2.50;;;;;;;21.51;53.80;102376.25;5030909;28;20461;-63
2021/08/25 08:56:29;;;;;;;5.70;2.28;;;;;;;21.51;53.58;102373.59;5031904;28;20024;-63
2021/08/25 08:58:56;;;;;;;4.57;2.35;;;;;;;21.51;53.76;102372.75;5031696;28;20497;-63
2021/08/25 09:01:25;;;;;;;4.65;2.30;;;;;;;21.48;53.55;102372.94;5034037;28;20033;-62
2021/08/25 09:03:50;;;;;;;5.57;2.00;;;;;;;21.50;53.56;102373.69;5035369;28;20108;-63
2021/08/25 09:06:15;;;;;;;5.28;2.28;;;;;;;21.46;53.61;102370.41;5036013;28;20056;-63
2021/08/25 09:08:41;;;;;;;4.82;2.08;;;;;;;21.50;53.68;102376.34;5035105;28;20041;-62
2021/08/25 09:11:09;;;;;;;5.47;2.13;;;;;;;21.47;53.52;102368.56;5035305;28;20104;-62
2021/08/25 09:13:51;;;;;;;4.28;2.10;;;;;;;21.48;53.61;102365.84;5035990;28;20175;-63
2021/08/25 09:16:28;;;;;;;5.75;2.38;;;;;;;21.50;53.70;102365.75;5035625;28;20030;-63
2021/08/25 09:19:04;;;;;;;5.97;2.30;;;;;;;21.49;53.63;102369.34;5038187;28;20022;-62
2021/08/25 09:21:33;;;;;;;5.07;2.35;;;;;;;21.47;53.68;102353.50;5038089;28;20064;-63
2021/08/25 09:23:58;;;;;;;5.55;2.58;;;;;;;21.49;53.76;102361.38;5038276;28;20017;-64
2021/08/25 09:26:23;;;;;;;4.60;2.15;;;;;;;21.49;53.74;102354.28;5038779;28;20025;-63
2021/08/25 09:28:51;;;;;;;3.90;1.95;;;;;;;21.47;53.84;102350.00;5037447;28;20021;-63
2021/08/25 09:31:16;;;;;;;4.65;2.00;;;;;;;21.48;53.89;102352.59;5038623;28;20021;-63
2021/08/25 09:33:44;;;;;;;4.63;2.50;;;;;;;21.49;53.77;102354.28;5039113;28;20512;-60
2021/08/25 09:36:12;;;;;;;4.30;1.90;;;;;;;21.49;53.80;102350.78;5037510;28;20274;-63
2021/08/25 09:38:38;;;;;;;4.57;2.03;;;;;;;21.48;53.72;102349.06;5037714;28;20029;-63
2021/08/25 09:41:09;;;;;;;4.70;2.10;;;;;;;21.47;53.64;102350.84;5035483;28;20033;-62
2021/08/25 09:43:42;;;;;;;4.70;2.10;;;;;;;21.51;53.73;102348.88;5035134;28;20496;-67
2021/08/25 09:46:16;;;;;;;7.15;2.60;;;;;;;21.51;53.76;102357.66;5035276;28;20111;-63
2021/08/25 09:48:47;;;;;;;5.22;2.17;;;;;;;21.54;53.36;102356.63;5036427;28;20044;-65
2021/08/25 09:51:15;;;;;;;5.43;2.30;;;;;;;21.56;53.82;102344.06;5034732;28;20072;-63
2021/08/25 09:53:40;;;;;;;4.43;2.05;;;;;;;21.56;53.99;102344.91;5035595;28;20466;-65
2021/08/25 09:56:22;;;;;;;4.63;2.20;;;;;;;21.58;54.03;102344.81;5035864;28;20024;-66
2021/08/25 09:58:48;;;;;;;5.75;2.13;;;;;;;21.60;53.89;102342.03;5035087;28;20461;-66
2021/08/25 10:01:16;;;;;;;4.50;2.10;;;;;;;21.61;53.74;102333.13;5035630;28;20042;-65
2021/08/25 10:03:41;;;;;;;5.03;2.35;;;;;;;21.63;53.50;102328.56;5035315;28;20055;-65
2021/08/25 10:06:07;;;;;;;4.45;2.20;;;;;;;21.60;53.57;102318.16;5035039;28;20525;-65
2021/08/25 10:08:34;;;;;;;5.38;2.10;;;;;;;21.63;53.46;102320.59;5035506;28;20079;-66
2021/08/25 10:11:01;;;;;;;4.93;2.17;;;;;;;21.63;53.38;102307.34;5034277;28;20113;-63
2021/08/25 10:13:28;;;;;;;4.88;2.10;;;;;;;21.66;53.21;102307.09;5034390;28;20022;-60
2021/08/25 10:15:53;;;;;;;4.40;2.00;;;;;;;21.66;53.09;102307.09;5034681;28;20028;-60
2021/08/25 10:18:27;;;;;;;4.82;2.10;;;;;;;21.67;52.89;102301.69;5034457;28;20029;-61
2021/08/25 10:20:54;;;;;;;5.07;2.20;;;;;;;21.68;53.08;102306.06;5034882;28;20053;-59
2021/08/25 10:23:20;;;;;;;4.90;1.90;;;;;;;21.68;53.08;102294.56;5035204;28;20092;-60
2021/08/25 10:26:07;;;;;;;5.90;2.47;;;;;;;21.68;52.97;102297.22;5033789;28;20021;-63
2021/08/25 10:29:02;;;;;;;4.60;2.17;;;;;;;21.69;52.65;102297.09;5034626;28;20065;-65
2021/08/25 10:31:48;;;;;;;5.38;2.25;;;;;;;21.69;52.33;102293.63;5034016;28;20037;-63
2021/08/25 10:34:27;;;;;;;5.60;2.30;;;;;;;21.68;51.81;102298.09;5034503;28;20079;-63
2021/08/25 10:37:24;;;;;;;5.85;2.72;;;;;;;21.68;51.42;102299.88;5034543;28;20342;-62
2021/08/25 10:39:58;;;;;;;5.55;2.60;;;;;;;21.66;50.90;102300.00;5027701;28;20068;-67
2021/08/25 10:42:46;;;;;;;7.03;2.55;;;;;;;21.68;51.63;102300.75;5034126;28;20469;-62
2021/08/25 10:45:12;;;;;;;5.10;2.15;;;;;;;21.70;50.83;102303.28;5034363;28;20202;-61
2021/08/25 10:48:02;;;;;;;5.78;3.08;;;;;;;21.68;50.33;102298.09;5033457;28;20478;-62
2021/08/25 10:50:54;;;;;;;5.57;2.75;;;;;;;21.69;50.41;102301.56;5034195;28;20029;-63
2021/08/25 10:53:28;;;;;;;6.15;2.63;;;;;;;21.67;49.93;102291.06;5033556;28;20033;-62
2021/08/25 10:56:13;;;;;;;6.55;3.00;;;;;;;21.67;49.60;102291.06;5034056;28;20021;-62
2021/08/25 10:58:47;;;;;;;6.43;3.00;;;;;;;21.67;49.07;102290.25;5034168;28;20041;-62
2021/08/25 11:01:35;;;;;;;6.93;2.70;;;;;;;21.58;49.34;102265.22;5033341;28;20032;-62
2021/08/25 11:04:04;;;;;;;6.75;3.20;;;;;;;21.65;49.27;102268.25;5033561;28;20405;-61
2021/08/25 11:06:37;;;;;;;6.28;3.17;;;;;;;21.66;49.50;102277.94;5034338;28;20065;-62
2021/08/25 11:09:26;;;;;;;6.28;3.08;;;;;;;21.67;49.18;102272.50;5033667;28;20018;-63
2021/08/25 11:12:00;;;;;;;5.72;2.80;;;;;;;21.67;49.00;102269.84;5033758;28;20486;-60
2021/08/25 11:14:39;;;;;;;6.47;3.10;;;;;;;21.69;48.81;102275.06;5033485;28;20021;-62
2021/08/25 11:17:14;;;;;;;6.35;2.65;;;;;;;21.70;48.57;102258.19;5033492;28;20504;-62
2021/08/25 11:19:52;;;;;;;5.72;2.83;;;;;;;21.68;48.68;102253.00;5033890;28;20064;-61
2021/08/25 11:22:31;;;;;;;5.20;2.70;;;;;;;21.71;48.79;102243.94;5033016;28;20039;-61
2021/08/25 11:25:17;;;;;;;5.35;2.80;;;;;;;21.71;48.63;102244.81;5032786;28;20022;-62
2021/08/25 11:27:47;;;;;;;6.50;2.75;;;;;;;21.74;49.03;102241.06;5032909;28;20374;-62